sensor_id;sensor_type;location;lat;lon;timestamp;temperature;humidity
7844;DHT22;3967;48.702;9.326;2023-02-01T00:02:25;4.30;99.90
7844;DHT22;3967;48.702;9.326;2023-02-01T00:04:52;4.40;99.90
7844;DHT22;3967;48.702;9.326;2023-02-01T00:07:19;4.30;99.90
7844;DHT22;3967;48.702;9.326;2023-02-01T00:09:45;4.30;99.90
7844;DHT22;3967;48.702;9.326;2023-02-01T00:12:12;4.30;99.90
7844;DHT22;3967;48.702;9.326;2023-02-01T00:14:39;4.30;99.90
7844;DHT22;3967;48.702;9.326;2023-02-01T00:17:06;4.30;99.90
7844;DHT22;3967;48.702;9.326;2023-02-01T00:19:34;4.20;99.90
7844;DHT22;3967;48.702;9.326;2023-02-01T00:22:00;4.20;99.90
7844;DHT22;3967;48.702;9.326;2023-02-01T00:24:27;4.20;99.90
7844;DHT22;3967;48.702;9.326;2023-02-01T00:26:54;4.20;99.90
7844;DHT22;3967;48.702;9.326;2023-02-01T00:29:22;4.20;99.90
7844;DHT22;3967;48.702;9.326;2023-02-01T00:31:52;4.20;99.90
7844;DHT22;3967;48.702;9.326;2023-02-01T00:34:20;4.20;99.90
7844;DHT22;3967;48.702;9.326;2023-02-01T00:36:47;4.20;99.90
7844;DHT22;3967;48.702;9.326;2023-02-01T00:39:14;4.20;99.90
7844;DHT22;3967;48.702;9.326;2023-02-01T00:41:41;4.20;99.90
7844;DHT22;3967;48.702;9.326;2023-02-01T00:44:08;4.30;99.90
7844;DHT22;3967;48.702;9.326;2023-02-01T00:46:35;4.30;99.90
7844;DHT22;3967;48.702;9.326;2023-02-01T00:49:02;4.20;99.90
7844;DHT22;3967;48.702;9.326;2023-02-01T00:51:29;4.20;99.90
7844;DHT22;3967;48.702;9.326;2023-02-01T00:53:57;4.30;99.90
7844;DHT22;3967;48.702;9.326;2023-02-01T00:56:23;4.30;99.90
7844;DHT22;3967;48.702;9.326;2023-02-01T00:58:50;4.30;99.90
7844;DHT22;3967;48.702;9.326;2023-02-01T01:01:22;4.30;99.90
7844;DHT22;3967;48.702;9.326;2023-02-01T01:03:52;4.20;99.90
7844;DHT22;3967;48.702;9.326;2023-02-01T01:06:28;4.20;99.90
7844;DHT22;3967;48.702;9.326;2023-02-01T01:08:56;4.20;99.90
7844;DHT22;3967;48.702;9.326;2023-02-01T01:11:26;4.20;99.90
7844;DHT22;3967;48.702;9.326;2023-02-01T01:13:54;4.30;99.90
7844;DHT22;3967;48.702;9.326;2023-02-01T01:16:23;4.30;99.90
7844;DHT22;3967;48.702;9.326;2023-02-01T01:18:50;4.30;99.90
7844;DHT22;3967;48.702;9.326;2023-02-01T01:21:18;4.30;99.90
7844;DHT22;3967;48.702;9.326;2023-02-01T01:23:45;4.30;99.90
7844;DHT22;3967;48.702;9.326;2023-02-01T01:26:21;4.30;99.90
7844;DHT22;3967;48.702;9.326;2023-02-01T01:28:50;4.30;99.90
7844;DHT22;3967;48.702;9.326;2023-02-01T01:31:18;4.40;99.90
7844;DHT22;3967;48.702;9.326;2023-02-01T01:33:48;4.40;99.90
7844;DHT22;3967;48.702;9.326;2023-02-01T01:36:16;4.40;99.90
7844;DHT22;3967;48.702;9.326;2023-02-01T01:38:43;4.40;99.90
7844;DHT22;3967;48.702;9.326;2023-02-01T01:41:14;4.40;99.90
7844;DHT22;3967;48.702;9.326;2023-02-01T01:43:55;4.30;99.90
7844;DHT22;3967;48.702;9.326;2023-02-01T01:46:25;4.40;99.90
7844;DHT22;3967;48.702;9.326;2023-02-01T01:49:04;4.30;99.90
7844;DHT22;3967;48.702;9.326;2023-02-01T01:51:35;4.40;99.90
7844;DHT22;3967;48.702;9.326;2023-02-01T01:54:09;4.40;99.90
7844;DHT22;3967;48.702;9.326;2023-02-01T01:56:38;4.40;99.90
7844;DHT22;3967;48.702;9.326;2023-02-01T01:59:06;4.40;99.90
7844;DHT22;3967;48.702;9.326;2023-02-01T02:01:34;4.50;99.90
7844;DHT22;3967;48.702;9.326;2023-02-01T02:04:01;4.50;99.90
7844;DHT22;3967;48.702;9.326;2023-02-01T02:06:56;4.40;99.90
7844;DHT22;3967;48.702;9.326;2023-02-01T02:09:24;4.50;99.90
7844;DHT22;3967;48.702;9.326;2023-02-01T02:11:51;4.50;99.90
7844;DHT22;3967;48.702;9.326;2023-02-01T02:14:20;4.50;99.90
7844;DHT22;3967;48.702;9.326;2023-02-01T02:36:03;4.40;99.90
7844;DHT22;3967;48.702;9.326;2023-02-01T02:38:53;4.40;99.90
7844;DHT22;3967;48.702;9.326;2023-02-01T02:44:28;4.50;99.90
7844;DHT22;3967;48.702;9.326;2023-02-01T02:47:25;4.40;99.90
7844;DHT22;3967;48.702;9.326;2023-02-01T02:52:54;4.40;99.90
7844;DHT22;3967;48.702;9.326;2023-02-01T02:55:42;4.40;99.90
7844;DHT22;3967;48.702;9.326;2023-02-01T02:58:11;4.50;99.90
7844;DHT22;3967;48.702;9.326;2023-02-01T03:00:57;4.50;99.90
7844;DHT22;3967;48.702;9.326;2023-02-01T03:03:44;4.60;99.90
7844;DHT22;3967;48.702;9.326;2023-02-01T03:06:32;4.60;99.90
7844;DHT22;3967;48.702;9.326;2023-02-01T03:09:02;4.60;99.90
7844;DHT22;3967;48.702;9.326;2023-02-01T03:11:31;4.60;99.90
7844;DHT22;3967;48.702;9.326;2023-02-01T03:14:21;4.60;99.90
7844;DHT22;3967;48.702;9.326;2023-02-01T03:16:53;4.60;99.90
7844;DHT22;3967;48.702;9.326;2023-02-01T03:19:29;4.50;99.90
7844;DHT22;3967;48.702;9.326;2023-02-01T03:22:04;4.50;99.90
7844;DHT22;3967;48.702;9.326;2023-02-01T03:24:39;4.40;99.90
7844;DHT22;3967;48.702;9.326;2023-02-01T03:27:24;4.40;99.90
7844;DHT22;3967;48.702;9.326;2023-02-01T03:32:29;4.40;99.90
7844;DHT22;3967;48.702;9.326;2023-02-01T03:35:15;4.40;99.90
7844;DHT22;3967;48.702;9.326;2023-02-01T03:37:43;4.40;99.90
7844;DHT22;3967;48.702;9.326;2023-02-01T03:40:11;4.50;99.90
7844;DHT22;3967;48.702;9.326;2023-02-01T03:42:46;4.50;99.90
7844;DHT22;3967;48.702;9.326;2023-02-01T03:45:24;4.50;99.90
7844;DHT22;3967;48.702;9.326;2023-02-01T03:47:56;4.50;99.90
7844;DHT22;3967;48.702;9.326;2023-02-01T03:50:24;4.50;99.90
7844;DHT22;3967;48.702;9.326;2023-02-01T03:52:59;4.50;99.90
7844;DHT22;3967;48.702;9.326;2023-02-01T03:55:27;4.50;99.90
7844;DHT22;3967;48.702;9.326;2023-02-01T04:01:00;4.50;99.90
7844;DHT22;3967;48.702;9.326;2023-02-01T04:03:28;4.50;99.90
7844;DHT22;3967;48.702;9.326;2023-02-01T04:05:55;4.40;99.90
7844;DHT22;3967;48.702;9.326;2023-02-01T04:08:22;4.40;99.90
7844;DHT22;3967;48.702;9.326;2023-02-01T04:10:49;4.40;99.90
7844;DHT22;3967;48.702;9.326;2023-02-01T04:13:16;4.40;99.90
7844;DHT22;3967;48.702;9.326;2023-02-01T04:15:43;4.40;99.90
7844;DHT22;3967;48.702;9.326;2023-02-01T04:18:10;4.50;99.90
7844;DHT22;3967;48.702;9.326;2023-02-01T04:20:36;4.50;99.90
7844;DHT22;3967;48.702;9.326;2023-02-01T04:23:03;4.40;99.90
7844;DHT22;3967;48.702;9.326;2023-02-01T04:25:30;4.50;99.90
7844;DHT22;3967;48.702;9.326;2023-02-01T04:27:56;4.50;99.90
7844;DHT22;3967;48.702;9.326;2023-02-01T04:30:23;4.50;99.90
7844;DHT22;3967;48.702;9.326;2023-02-01T04:32:50;4.50;99.90
7844;DHT22;3967;48.702;9.326;2023-02-01T04:35:17;4.50;99.90
7844;DHT22;3967;48.702;9.326;2023-02-01T04:37:44;4.50;99.90
7844;DHT22;3967;48.702;9.326;2023-02-01T04:40:11;4.50;99.90
7844;DHT22;3967;48.702;9.326;2023-02-01T04:42:41;4.50;99.90
7844;DHT22;3967;48.702;9.326;2023-02-01T04:45:10;4.60;99.90
7844;DHT22;3967;48.702;9.326;2023-02-01T04:47:37;4.60;99.90
7844;DHT22;3967;48.702;9.326;2023-02-01T04:50:04;4.60;99.90
7844;DHT22;3967;48.702;9.326;2023-02-01T04:52:32;4.60;99.90
7844;DHT22;3967;48.702;9.326;2023-02-01T04:54:59;4.60;99.90
7844;DHT22;3967;48.702;9.326;2023-02-01T04:57:26;4.50;99.90
7844;DHT22;3967;48.702;9.326;2023-02-01T04:59:53;4.50;99.90
7844;DHT22;3967;48.702;9.326;2023-02-01T05:02:20;4.50;99.90
7844;DHT22;3967;48.702;9.326;2023-02-01T05:04:46;4.50;99.90
7844;DHT22;3967;48.702;9.326;2023-02-01T05:07:13;4.50;99.90
7844;DHT22;3967;48.702;9.326;2023-02-01T05:09:40;4.50;99.90
7844;DHT22;3967;48.702;9.326;2023-02-01T05:12:09;4.60;99.90
7844;DHT22;3967;48.702;9.326;2023-02-01T05:14:55;4.60;99.90
7844;DHT22;3967;48.702;9.326;2023-02-01T05:17:21;4.60;99.90
7844;DHT22;3967;48.702;9.326;2023-02-01T05:19:48;4.70;99.90
7844;DHT22;3967;48.702;9.326;2023-02-01T05:22:15;4.70;99.90
7844;DHT22;3967;48.702;9.326;2023-02-01T05:24:41;4.60;99.90
7844;DHT22;3967;48.702;9.326;2023-02-01T05:27:08;4.50;99.90
7844;DHT22;3967;48.702;9.326;2023-02-01T05:29:35;4.50;99.90
7844;DHT22;3967;48.702;9.326;2023-02-01T05:32:01;4.50;99.90
7844;DHT22;3967;48.702;9.326;2023-02-01T05:34:46;4.60;99.90
7844;DHT22;3967;48.702;9.326;2023-02-01T05:37:13;4.60;99.90
7844;DHT22;3967;48.702;9.326;2023-02-01T05:39:40;4.60;99.90
7844;DHT22;3967;48.702;9.326;2023-02-01T05:42:06;4.60;99.90
7844;DHT22;3967;48.702;9.326;2023-02-01T05:44:33;4.60;99.90
7844;DHT22;3967;48.702;9.326;2023-02-01T05:47:00;4.60;99.90
7844;DHT22;3967;48.702;9.326;2023-02-01T05:49:27;4.70;99.90
7844;DHT22;3967;48.702;9.326;2023-02-01T05:51:54;4.70;99.90
7844;DHT22;3967;48.702;9.326;2023-02-01T05:54:21;4.70;99.90
7844;DHT22;3967;48.702;9.326;2023-02-01T05:56:47;4.60;99.90
7844;DHT22;3967;48.702;9.326;2023-02-01T05:59:14;4.60;99.90
7844;DHT22;3967;48.702;9.326;2023-02-01T06:01:41;4.60;99.90
7844;DHT22;3967;48.702;9.326;2023-02-01T06:04:08;4.60;99.90
7844;DHT22;3967;48.702;9.326;2023-02-01T06:06:36;4.60;99.90
7844;DHT22;3967;48.702;9.326;2023-02-01T06:09:05;4.60;99.90
7844;DHT22;3967;48.702;9.326;2023-02-01T06:11:32;4.60;99.90
7844;DHT22;3967;48.702;9.326;2023-02-01T06:13:59;4.80;99.90
7844;DHT22;3967;48.702;9.326;2023-02-01T06:16:26;5.10;99.90
7844;DHT22;3967;48.702;9.326;2023-02-01T06:18:53;4.90;99.90
7844;DHT22;3967;48.702;9.326;2023-02-01T06:21:20;4.70;99.90
7844;DHT22;3967;48.702;9.326;2023-02-01T06:23:53;4.50;99.90
7844;DHT22;3967;48.702;9.326;2023-02-01T06:26:22;4.50;99.90
7844;DHT22;3967;48.702;9.326;2023-02-01T06:28:49;4.40;99.90
7844;DHT22;3967;48.702;9.326;2023-02-01T06:31:16;4.40;99.90
7844;DHT22;3967;48.702;9.326;2023-02-01T06:33:43;4.40;99.90
7844;DHT22;3967;48.702;9.326;2023-02-01T06:36:10;4.40;99.90
7844;DHT22;3967;48.702;9.326;2023-02-01T06:38:38;4.40;99.90
7844;DHT22;3967;48.702;9.326;2023-02-01T06:41:06;4.50;99.90
7844;DHT22;3967;48.702;9.326;2023-02-01T06:43:33;4.50;99.90
7844;DHT22;3967;48.702;9.326;2023-02-01T06:46:01;4.40;99.90
7844;DHT22;3967;48.702;9.326;2023-02-01T06:48:28;4.50;99.90
7844;DHT22;3967;48.702;9.326;2023-02-01T06:50:55;4.50;99.90
7844;DHT22;3967;48.702;9.326;2023-02-01T06:53:22;4.50;99.90
7844;DHT22;3967;48.702;9.326;2023-02-01T06:56:00;4.50;99.90
7844;DHT22;3967;48.702;9.326;2023-02-01T06:58:31;4.50;99.90
7844;DHT22;3967;48.702;9.326;2023-02-01T07:01:04;4.50;99.90
7844;DHT22;3967;48.702;9.326;2023-02-01T07:03:31;4.50;99.90
7844;DHT22;3967;48.702;9.326;2023-02-01T07:05:58;4.50;99.90
7844;DHT22;3967;48.702;9.326;2023-02-01T07:08:27;4.60;99.90
7844;DHT22;3967;48.702;9.326;2023-02-01T07:10:54;4.60;99.90
7844;DHT22;3967;48.702;9.326;2023-02-01T07:13:21;4.60;99.90
7844;DHT22;3967;48.702;9.326;2023-02-01T07:15:47;4.60;99.90
7844;DHT22;3967;48.702;9.326;2023-02-01T07:18:15;4.50;99.90
7844;DHT22;3967;48.702;9.326;2023-02-01T07:20:42;4.60;99.90
7844;DHT22;3967;48.702;9.326;2023-02-01T07:23:10;4.60;99.90
7844;DHT22;3967;48.702;9.326;2023-02-01T07:25:36;4.60;99.90
7844;DHT22;3967;48.702;9.326;2023-02-01T07:28:03;4.60;99.90
7844;DHT22;3967;48.702;9.326;2023-02-01T07:30:30;4.60;99.90
7844;DHT22;3967;48.702;9.326;2023-02-01T07:32:57;4.60;99.90
7844;DHT22;3967;48.702;9.326;2023-02-01T07:35:28;4.60;99.90
7844;DHT22;3967;48.702;9.326;2023-02-01T07:37:56;4.70;99.90
7844;DHT22;3967;48.702;9.326;2023-02-01T07:40:23;4.70;99.90
7844;DHT22;3967;48.702;9.326;2023-02-01T07:42:55;4.70;99.90
7844;DHT22;3967;48.702;9.326;2023-02-01T07:45:22;4.70;99.90
7844;DHT22;3967;48.702;9.326;2023-02-01T07:47:52;4.80;99.90
7844;DHT22;3967;48.702;9.326;2023-02-01T07:50:19;4.80;99.90
7844;DHT22;3967;48.702;9.326;2023-02-01T07:52:46;4.80;99.90
7844;DHT22;3967;48.702;9.326;2023-02-01T07:55:13;4.90;99.90
7844;DHT22;3967;48.702;9.326;2023-02-01T07:57:40;4.90;99.90
7844;DHT22;3967;48.702;9.326;2023-02-01T08:00:07;4.90;99.90
7844;DHT22;3967;48.702;9.326;2023-02-01T08:02:53;4.80;99.90
7844;DHT22;3967;48.702;9.326;2023-02-01T08:05:20;4.70;99.90
7844;DHT22;3967;48.702;9.326;2023-02-01T08:07:50;4.70;99.90
7844;DHT22;3967;48.702;9.326;2023-02-01T08:10:17;4.70;99.90
7844;DHT22;3967;48.702;9.326;2023-02-01T08:12:45;4.70;99.90
7844;DHT22;3967;48.702;9.326;2023-02-01T08:15:15;4.70;99.90
7844;DHT22;3967;48.702;9.326;2023-02-01T08:17:49;4.70;99.90
7844;DHT22;3967;48.702;9.326;2023-02-01T08:20:18;4.80;99.90
7844;DHT22;3967;48.702;9.326;2023-02-01T08:22:44;4.80;99.90
7844;DHT22;3967;48.702;9.326;2023-02-01T08:25:11;4.80;99.90
7844;DHT22;3967;48.702;9.326;2023-02-01T08:27:38;4.70;99.90
7844;DHT22;3967;48.702;9.326;2023-02-01T08:30:05;4.80;99.90
7844;DHT22;3967;48.702;9.326;2023-02-01T08:32:34;4.80;99.90
7844;DHT22;3967;48.702;9.326;2023-02-01T08:35:01;4.80;99.90
7844;DHT22;3967;48.702;9.326;2023-02-01T08:37:28;4.90;99.90
7844;DHT22;3967;48.702;9.326;2023-02-01T08:39:55;4.90;99.90
7844;DHT22;3967;48.702;9.326;2023-02-01T08:42:22;4.90;99.90
7844;DHT22;3967;48.702;9.326;2023-02-01T08:45:08;4.90;99.90
7844;DHT22;3967;48.702;9.326;2023-02-01T08:47:35;4.90;99.90
7844;DHT22;3967;48.702;9.326;2023-02-01T08:50:02;4.80;99.90
7844;DHT22;3967;48.702;9.326;2023-02-01T08:52:29;4.80;99.90
7844;DHT22;3967;48.702;9.326;2023-02-01T08:54:56;4.90;99.90
7844;DHT22;3967;48.702;9.326;2023-02-01T08:57:22;4.90;99.90
7844;DHT22;3967;48.702;9.326;2023-02-01T08:59:49;4.90;99.90
7844;DHT22;3967;48.702;9.326;2023-02-01T09:02:17;4.90;99.90
7844;DHT22;3967;48.702;9.326;2023-02-01T09:04:44;5.00;99.90
7844;DHT22;3967;48.702;9.326;2023-02-01T09:07:11;5.00;99.90
7844;DHT22;3967;48.702;9.326;2023-02-01T09:09:39;5.10;99.90
7844;DHT22;3967;48.702;9.326;2023-02-01T09:12:06;5.00;99.90
7844;DHT22;3967;48.702;9.326;2023-02-01T09:14:32;5.00;99.90
7844;DHT22;3967;48.702;9.326;2023-02-01T09:16:59;5.00;99.90
7844;DHT22;3967;48.702;9.326;2023-02-01T09:19:26;5.10;99.90
7844;DHT22;3967;48.702;9.326;2023-02-01T09:21:53;5.10;99.90
7844;DHT22;3967;48.702;9.326;2023-02-01T09:24:20;5.00;99.90
7844;DHT22;3967;48.702;9.326;2023-02-01T09:26:46;5.10;99.90
7844;DHT22;3967;48.702;9.326;2023-02-01T09:29:13;5.10;99.90
7844;DHT22;3967;48.702;9.326;2023-02-01T09:31:40;5.10;99.90
7844;DHT22;3967;48.702;9.326;2023-02-01T09:34:19;5.20;99.90
7844;DHT22;3967;48.702;9.326;2023-02-01T09:36:45;5.10;99.90
7844;DHT22;3967;48.702;9.326;2023-02-01T09:39:12;5.10;99.90
7844;DHT22;3967;48.702;9.326;2023-02-01T09:41:48;5.10;99.90
7844;DHT22;3967;48.702;9.326;2023-02-01T09:44:34;5.10;99.90
7844;DHT22;3967;48.702;9.326;2023-02-01T09:47:14;5.10;99.90
7844;DHT22;3967;48.702;9.326;2023-02-01T09:52:42;5.10;99.90
7844;DHT22;3967;48.702;9.326;2023-02-01T09:55:47;5.10;99.90
7844;DHT22;3967;48.702;9.326;2023-02-01T09:58:25;5.20;99.90
7844;DHT22;3967;48.702;9.326;2023-02-01T10:00:56;5.30;99.90
7844;DHT22;3967;48.702;9.326;2023-02-01T10:03:26;5.20;99.90
7844;DHT22;3967;48.702;9.326;2023-02-01T10:14:38;5.60;99.90
7844;DHT22;3967;48.702;9.326;2023-02-01T10:17:49;5.50;99.90
7844;DHT22;3967;48.702;9.326;2023-02-01T10:20:23;5.50;99.90
7844;DHT22;3967;48.702;9.326;2023-02-01T10:26:22;5.50;99.90
7844;DHT22;3967;48.702;9.326;2023-02-01T10:31:18;5.50;99.90
7844;DHT22;3967;48.702;9.326;2023-02-01T10:33:51;5.50;99.90
7844;DHT22;3967;48.702;9.326;2023-02-01T10:36:40;5.50;99.90
7844;DHT22;3967;48.702;9.326;2023-02-01T10:39:11;5.50;99.90
7844;DHT22;3967;48.702;9.326;2023-02-01T10:41:42;5.60;99.90
7844;DHT22;3967;48.702;9.326;2023-02-01T10:44:16;5.70;99.90
7844;DHT22;3967;48.702;9.326;2023-02-01T10:46:43;5.70;99.90
7844;DHT22;3967;48.702;9.326;2023-02-01T10:49:19;5.80;99.90
7844;DHT22;3967;48.702;9.326;2023-02-01T10:52:02;5.90;99.90
7844;DHT22;3967;48.702;9.326;2023-02-01T10:54:37;5.90;99.90
7844;DHT22;3967;48.702;9.326;2023-02-01T10:57:31;5.90;99.90
7844;DHT22;3967;48.702;9.326;2023-02-01T11:00:06;5.90;99.90
7844;DHT22;3967;48.702;9.326;2023-02-01T11:02:44;5.80;99.90
7844;DHT22;3967;48.702;9.326;2023-02-01T11:05:11;5.80;99.90
7844;DHT22;3967;48.702;9.326;2023-02-01T11:07:40;5.90;99.90
7844;DHT22;3967;48.702;9.326;2023-02-01T11:10:41;5.90;99.90
7844;DHT22;3967;48.702;9.326;2023-02-01T11:13:18;6.00;99.70
7844;DHT22;3967;48.702;9.326;2023-02-01T11:15:46;5.90;99.50
7844;DHT22;3967;48.702;9.326;2023-02-01T11:18:24;5.90;99.60
7844;DHT22;3967;48.702;9.326;2023-02-01T11:20:51;6.00;99.50
7844;DHT22;3967;48.702;9.326;2023-02-01T11:23:22;6.00;99.40
7844;DHT22;3967;48.702;9.326;2023-02-01T11:25:57;6.10;99.10
7844;DHT22;3967;48.702;9.326;2023-02-01T11:28:26;6.10;98.90
7844;DHT22;3967;48.702;9.326;2023-02-01T11:30:56;6.10;98.60
7844;DHT22;3967;48.702;9.326;2023-02-01T11:33:30;6.10;98.40
7844;DHT22;3967;48.702;9.326;2023-02-01T11:36:16;6.10;98.60
7844;DHT22;3967;48.702;9.326;2023-02-01T11:38:52;6.10;98.40
7844;DHT22;3967;48.702;9.326;2023-02-01T11:41:26;6.00;97.80
7844;DHT22;3967;48.702;9.326;2023-02-01T11:46:41;6.10;97.60
7844;DHT22;3967;48.702;9.326;2023-02-01T11:49:34;6.10;97.30
7844;DHT22;3967;48.702;9.326;2023-02-01T11:59:55;6.20;96.30
7844;DHT22;3967;48.702;9.326;2023-02-01T12:02:50;6.20;95.90
7844;DHT22;3967;48.702;9.326;2023-02-01T12:17:04;6.30;95.20
7844;DHT22;3967;48.702;9.326;2023-02-01T12:23:07;6.20;94.80
7844;DHT22;3967;48.702;9.326;2023-02-01T12:25:54;6.20;95.00
7844;DHT22;3967;48.702;9.326;2023-02-01T12:28:49;6.20;95.10
7844;DHT22;3967;48.702;9.326;2023-02-01T12:31:29;6.20;95.10
7844;DHT22;3967;48.702;9.326;2023-02-01T12:34:45;6.10;94.40
7844;DHT22;3967;48.702;9.326;2023-02-01T12:42:19;6.10;95.00
7844;DHT22;3967;48.702;9.326;2023-02-01T12:44:52;6.10;94.70
7844;DHT22;3967;48.702;9.326;2023-02-01T12:47:27;6.10;93.80
7844;DHT22;3967;48.702;9.326;2023-02-01T12:52:40;6.20;93.60
7844;DHT22;3967;48.702;9.326;2023-02-01T12:55:27;6.10;93.20
7844;DHT22;3967;48.702;9.326;2023-02-01T12:58:24;6.20;93.40
7844;DHT22;3967;48.702;9.326;2023-02-01T13:01:06;6.10;92.80
7844;DHT22;3967;48.702;9.326;2023-02-01T13:06:24;6.10;93.10
7844;DHT22;3967;48.702;9.326;2023-02-01T13:09:00;6.10;92.50
7844;DHT22;3967;48.702;9.326;2023-02-01T13:14:22;6.10;92.40
7844;DHT22;3967;48.702;9.326;2023-02-01T13:16:53;6.20;92.80
7844;DHT22;3967;48.702;9.326;2023-02-01T13:20:28;6.30;92.50
7844;DHT22;3967;48.702;9.326;2023-02-01T13:22:35;6.20;92.40
7844;DHT22;3967;48.702;9.326;2023-02-01T13:27:45;6.20;92.10
7844;DHT22;3967;48.702;9.326;2023-02-01T13:30:26;6.10;92.10
7844;DHT22;3967;48.702;9.326;2023-02-01T13:33:19;6.10;92.40
7844;DHT22;3967;48.702;9.326;2023-02-01T13:41:58;6.10;92.80
7844;DHT22;3967;48.702;9.326;2023-02-01T13:45:12;6.10;92.90
7844;DHT22;3967;48.702;9.326;2023-02-01T13:47:40;6.10;92.70
7844;DHT22;3967;48.702;9.326;2023-02-01T13:53:14;6.10;92.80
7844;DHT22;3967;48.702;9.326;2023-02-01T13:56:03;6.20;92.90
7844;DHT22;3967;48.702;9.326;2023-02-01T13:58:39;6.00;93.00
7844;DHT22;3967;48.702;9.326;2023-02-01T14:03:56;6.10;93.20
7844;DHT22;3967;48.702;9.326;2023-02-01T14:09:13;6.00;93.20
7844;DHT22;3967;48.702;9.326;2023-02-01T14:11:47;5.90;93.40
7844;DHT22;3967;48.702;9.326;2023-02-01T14:19:37;5.80;94.20
7844;DHT22;3967;48.702;9.326;2023-02-01T14:24:56;5.90;94.10
7844;DHT22;3967;48.702;9.326;2023-02-01T14:27:26;5.90;94.00
7844;DHT22;3967;48.702;9.326;2023-02-01T14:30:01;5.80;93.90
7844;DHT22;3967;48.702;9.326;2023-02-01T14:32:34;5.90;94.20
7844;DHT22;3967;48.702;9.326;2023-02-01T14:35:06;5.80;94.20
7844;DHT22;3967;48.702;9.326;2023-02-01T14:37:36;5.80;94.30
7844;DHT22;3967;48.702;9.326;2023-02-01T14:40:15;5.90;94.20
7844;DHT22;3967;48.702;9.326;2023-02-01T14:55:47;5.90;93.90
7844;DHT22;3967;48.702;9.326;2023-02-01T15:01:15;6.00;94.00
7844;DHT22;3967;48.702;9.326;2023-02-01T15:08:56;5.90;94.00
7844;DHT22;3967;48.702;9.326;2023-02-01T15:11:23;6.00;94.00
7844;DHT22;3967;48.702;9.326;2023-02-01T15:13:52;6.00;94.00
7844;DHT22;3967;48.702;9.326;2023-02-01T15:16:23;6.00;94.00
7844;DHT22;3967;48.702;9.326;2023-02-01T15:19:06;6.00;94.10
7844;DHT22;3967;48.702;9.326;2023-02-01T15:21:43;6.00;94.10
7844;DHT22;3967;48.702;9.326;2023-02-01T15:24:29;5.90;94.30
7844;DHT22;3967;48.702;9.326;2023-02-01T15:27:05;5.90;94.60
7844;DHT22;3967;48.702;9.326;2023-02-01T15:29:35;5.90;94.60
7844;DHT22;3967;48.702;9.326;2023-02-01T15:32:02;5.90;94.80
7844;DHT22;3967;48.702;9.326;2023-02-01T15:34:49;5.90;94.80
7844;DHT22;3967;48.702;9.326;2023-02-01T15:37:16;5.90;94.70
7844;DHT22;3967;48.702;9.326;2023-02-01T15:42:32;5.80;95.10
7844;DHT22;3967;48.702;9.326;2023-02-01T15:45:02;5.90;95.30
7844;DHT22;3967;48.702;9.326;2023-02-01T15:47:30;6.00;94.90
7844;DHT22;3967;48.702;9.326;2023-02-01T15:50:00;6.10;94.80
7844;DHT22;3967;48.702;9.326;2023-02-01T15:52:39;6.10;94.60
7844;DHT22;3967;48.702;9.326;2023-02-01T15:55:23;6.10;94.50
7844;DHT22;3967;48.702;9.326;2023-02-01T15:57:52;6.10;94.30
7844;DHT22;3967;48.702;9.326;2023-02-01T16:00:26;6.10;94.30
7844;DHT22;3967;48.702;9.326;2023-02-01T16:02:59;6.00;94.20
7844;DHT22;3967;48.702;9.326;2023-02-01T16:05:37;5.90;94.40
7844;DHT22;3967;48.702;9.326;2023-02-01T16:10:37;5.90;94.70
7844;DHT22;3967;48.702;9.326;2023-02-01T16:13:04;5.80;94.80
7844;DHT22;3967;48.702;9.326;2023-02-01T16:15:31;5.70;95.10
7844;DHT22;3967;48.702;9.326;2023-02-01T16:17:58;5.70;95.20
7844;DHT22;3967;48.702;9.326;2023-02-01T16:20:25;5.70;95.20
7844;DHT22;3967;48.702;9.326;2023-02-01T16:22:52;5.80;94.90
7844;DHT22;3967;48.702;9.326;2023-02-01T16:25:18;5.80;94.90
7844;DHT22;3967;48.702;9.326;2023-02-01T16:27:45;5.80;95.00
7844;DHT22;3967;48.702;9.326;2023-02-01T16:30:12;5.80;95.10
7844;DHT22;3967;48.702;9.326;2023-02-01T16:32:39;5.80;95.10
7844;DHT22;3967;48.702;9.326;2023-02-01T16:35:21;5.80;95.00
7844;DHT22;3967;48.702;9.326;2023-02-01T16:37:49;5.90;94.90
7844;DHT22;3967;48.702;9.326;2023-02-01T16:40:17;5.80;94.90
7844;DHT22;3967;48.702;9.326;2023-02-01T16:42:46;5.80;94.90
7844;DHT22;3967;48.702;9.326;2023-02-01T16:45:14;5.90;94.70
7844;DHT22;3967;48.702;9.326;2023-02-01T16:47:46;5.90;94.60
7844;DHT22;3967;48.702;9.326;2023-02-01T16:50:16;5.80;94.80
7844;DHT22;3967;48.702;9.326;2023-02-01T16:52:49;5.70;94.80
7844;DHT22;3967;48.702;9.326;2023-02-01T16:55:19;5.80;94.70
7844;DHT22;3967;48.702;9.326;2023-02-01T16:57:48;5.80;94.40
7844;DHT22;3967;48.702;9.326;2023-02-01T17:00:16;5.80;94.50
7844;DHT22;3967;48.702;9.326;2023-02-01T17:02:51;5.70;94.40
7844;DHT22;3967;48.702;9.326;2023-02-01T17:05:18;5.80;94.40
7844;DHT22;3967;48.702;9.326;2023-02-01T17:07:45;5.80;94.50
7844;DHT22;3967;48.702;9.326;2023-02-01T17:10:23;5.80;94.30
7844;DHT22;3967;48.702;9.326;2023-02-01T17:13:00;5.70;94.30
7844;DHT22;3967;48.702;9.326;2023-02-01T17:15:31;5.70;94.10
7844;DHT22;3967;48.702;9.326;2023-02-01T17:18:01;5.70;94.10
7844;DHT22;3967;48.702;9.326;2023-02-01T17:20:30;5.80;94.30
7844;DHT22;3967;48.702;9.326;2023-02-01T17:22:59;5.70;94.20
7844;DHT22;3967;48.702;9.326;2023-02-01T17:25:27;5.80;94.20
7844;DHT22;3967;48.702;9.326;2023-02-01T17:27:55;5.70;94.10
7844;DHT22;3967;48.702;9.326;2023-02-01T17:30:22;5.70;93.90
7844;DHT22;3967;48.702;9.326;2023-02-01T17:32:49;5.70;94.00
7844;DHT22;3967;48.702;9.326;2023-02-01T17:35:20;5.60;94.10
7844;DHT22;3967;48.702;9.326;2023-02-01T17:37:49;5.70;94.00
7844;DHT22;3967;48.702;9.326;2023-02-01T17:40:16;5.70;94.00
7844;DHT22;3967;48.702;9.326;2023-02-01T17:42:43;5.70;94.00
7844;DHT22;3967;48.702;9.326;2023-02-01T17:45:36;5.70;94.00
7844;DHT22;3967;48.702;9.326;2023-02-01T17:48:05;5.70;93.90
7844;DHT22;3967;48.702;9.326;2023-02-01T17:50:35;5.60;93.90
7844;DHT22;3967;48.702;9.326;2023-02-01T17:53:02;5.60;94.00
7844;DHT22;3967;48.702;9.326;2023-02-01T17:55:33;5.60;94.10
7844;DHT22;3967;48.702;9.326;2023-02-01T17:58:03;5.70;94.00
7844;DHT22;3967;48.702;9.326;2023-02-01T18:00:30;5.80;94.10
7844;DHT22;3967;48.702;9.326;2023-02-01T18:02:56;5.80;94.00
7844;DHT22;3967;48.702;9.326;2023-02-01T18:08:03;6.00;93.70
7844;DHT22;3967;48.702;9.326;2023-02-01T18:10:30;6.00;93.50
7844;DHT22;3967;48.702;9.326;2023-02-01T18:12:56;5.90;93.50
7844;DHT22;3967;48.702;9.326;2023-02-01T18:15:24;6.00;93.70
7844;DHT22;3967;48.702;9.326;2023-02-01T18:17:52;6.00;93.60
7844;DHT22;3967;48.702;9.326;2023-02-01T18:20:21;6.00;93.50
7844;DHT22;3967;48.702;9.326;2023-02-01T18:22:49;6.00;93.60
7844;DHT22;3967;48.702;9.326;2023-02-01T18:25:24;6.00;93.40
7844;DHT22;3967;48.702;9.326;2023-02-01T18:27:53;6.00;93.20
7844;DHT22;3967;48.702;9.326;2023-02-01T18:30:22;5.80;93.60
7844;DHT22;3967;48.702;9.326;2023-02-01T18:32:50;6.00;93.70
7844;DHT22;3967;48.702;9.326;2023-02-01T18:35:23;5.90;93.90
7844;DHT22;3967;48.702;9.326;2023-02-01T18:37:51;6.00;93.80
7844;DHT22;3967;48.702;9.326;2023-02-01T18:40:24;6.00;93.70
7844;DHT22;3967;48.702;9.326;2023-02-01T18:42:51;6.00;93.70
7844;DHT22;3967;48.702;9.326;2023-02-01T18:45:30;5.90;93.60
7844;DHT22;3967;48.702;9.326;2023-02-01T18:47:58;6.00;93.80
7844;DHT22;3967;48.702;9.326;2023-02-01T18:50:30;6.10;93.80
7844;DHT22;3967;48.702;9.326;2023-02-01T18:52:58;6.10;93.50
7844;DHT22;3967;48.702;9.326;2023-02-01T18:55:27;6.00;93.60
7844;DHT22;3967;48.702;9.326;2023-02-01T18:57:54;6.00;93.60
7844;DHT22;3967;48.702;9.326;2023-02-01T19:00:21;5.90;93.80
7844;DHT22;3967;48.702;9.326;2023-02-01T19:02:48;6.00;93.80
7844;DHT22;3967;48.702;9.326;2023-02-01T19:05:15;5.90;94.00
7844;DHT22;3967;48.702;9.326;2023-02-01T19:07:43;5.90;93.70